sensor_id;sensor_type;location;lat;lon;timestamp;temperature;humidity
30381;DHT22;17169;50.966;11.038;2023-06-26T00:01:44;21.50;92.00
30381;DHT22;17169;50.966;11.038;2023-06-26T00:04:47;21.40;91.80
30381;DHT22;17169;50.966;11.038;2023-06-26T00:07:49;21.50;91.70
30381;DHT22;17169;50.966;11.038;2023-06-26T00:10:51;21.40;91.80
30381;DHT22;17169;50.966;11.038;2023-06-26T00:13:54;21.30;91.90
30381;DHT22;17169;50.966;11.038;2023-06-26T00:16:58;21.30;92.10
30381;DHT22;17169;50.966;11.038;2023-06-26T00:20:00;21.30;92.10
30381;DHT22;17169;50.966;11.038;2023-06-26T00:23:06;21.20;92.00
30381;DHT22;17169;50.966;11.038;2023-06-26T00:26:08;21.20;92.20
30381;DHT22;17169;50.966;11.038;2023-06-26T00:29:11;21.10;92.30
30381;DHT22;17169;50.966;11.038;2023-06-26T00:32:15;21.20;92.50
30381;DHT22;17169;50.966;11.038;2023-06-26T00:35:17;21.20;92.70
30381;DHT22;17169;50.966;11.038;2023-06-26T00:38:19;21.10;92.70
30381;DHT22;17169;50.966;11.038;2023-06-26T00:41:22;21.10;92.90
30381;DHT22;17169;50.966;11.038;2023-06-26T00:44:24;21.10;92.90
30381;DHT22;17169;50.966;11.038;2023-06-26T00:47:29;21.00;93.10
30381;DHT22;17169;50.966;11.038;2023-06-26T00:50:32;21.00;93.10
30381;DHT22;17169;50.966;11.038;2023-06-26T00:53:34;20.90;93.30
30381;DHT22;17169;50.966;11.038;2023-06-26T00:56:37;20.90;93.40
30381;DHT22;17169;50.966;11.038;2023-06-26T00:59:39;20.90;93.70
30381;DHT22;17169;50.966;11.038;2023-06-26T01:02:43;20.90;93.70
30381;DHT22;17169;50.966;11.038;2023-06-26T01:05:46;20.80;93.90
30381;DHT22;17169;50.966;11.038;2023-06-26T01:08:51;20.80;94.00
30381;DHT22;17169;50.966;11.038;2023-06-26T01:11:53;20.80;94.10
30381;DHT22;17169;50.966;11.038;2023-06-26T01:14:56;20.80;94.30
30381;DHT22;17169;50.966;11.038;2023-06-26T01:18:00;20.60;94.50
30381;DHT22;17169;50.966;11.038;2023-06-26T01:21:05;20.60;94.80
30381;DHT22;17169;50.966;11.038;2023-06-26T01:24:12;20.60;95.00
30381;DHT22;17169;50.966;11.038;2023-06-26T01:27:22;20.50;95.00
30381;DHT22;17169;50.966;11.038;2023-06-26T01:30:25;20.60;95.50
30381;DHT22;17169;50.966;11.038;2023-06-26T01:33:28;20.50;95.50
30381;DHT22;17169;50.966;11.038;2023-06-26T01:36:31;20.50;95.70
30381;DHT22;17169;50.966;11.038;2023-06-26T01:39:33;20.50;95.80
30381;DHT22;17169;50.966;11.038;2023-06-26T01:42:37;20.40;96.00
30381;DHT22;17169;50.966;11.038;2023-06-26T01:45:40;20.40;96.10
30381;DHT22;17169;50.966;11.038;2023-06-26T01:48:49;20.30;96.30
30381;DHT22;17169;50.966;11.038;2023-06-26T01:51:58;20.30;96.50
30381;DHT22;17169;50.966;11.038;2023-06-26T01:55:08;20.30;96.80
30381;DHT22;17169;50.966;11.038;2023-06-26T01:58:13;20.30;96.90
30381;DHT22;17169;50.966;11.038;2023-06-26T02:01:17;20.30;97.00
30381;DHT22;17169;50.966;11.038;2023-06-26T02:04:20;20.30;97.00
30381;DHT22;17169;50.966;11.038;2023-06-26T02:07:22;20.20;97.10
30381;DHT22;17169;50.966;11.038;2023-06-26T02:10:25;20.20;97.30
30381;DHT22;17169;50.966;11.038;2023-06-26T02:13:28;20.20;97.50
30381;DHT22;17169;50.966;11.038;2023-06-26T02:16:31;20.20;97.70
30381;DHT22;17169;50.966;11.038;2023-06-26T02:19:34;20.20;97.80
30381;DHT22;17169;50.966;11.038;2023-06-26T02:22:36;20.20;97.90
30381;DHT22;17169;50.966;11.038;2023-06-26T02:25:38;20.10;98.00
30381;DHT22;17169;50.966;11.038;2023-06-26T02:28:42;20.00;98.20
30381;DHT22;17169;50.966;11.038;2023-06-26T02:31:44;20.00;98.40
30381;DHT22;17169;50.966;11.038;2023-06-26T02:34:47;20.00;98.70
30381;DHT22;17169;50.966;11.038;2023-06-26T02:37:49;20.00;98.70
30381;DHT22;17169;50.966;11.038;2023-06-26T02:40:52;20.00;98.90
30381;DHT22;17169;50.966;11.038;2023-06-26T02:43:55;19.90;98.90
30381;DHT22;17169;50.966;11.038;2023-06-26T02:46:58;19.80;99.10
30381;DHT22;17169;50.966;11.038;2023-06-26T02:50:00;19.80;99.20
30381;DHT22;17169;50.966;11.038;2023-06-26T02:53:02;19.90;99.40
30381;DHT22;17169;50.966;11.038;2023-06-26T02:56:05;19.80;99.50
30381;DHT22;17169;50.966;11.038;2023-06-26T02:59:08;19.80;99.80
30381;DHT22;17169;50.966;11.038;2023-06-26T03:02:11;19.80;99.90
30381;DHT22;17169;50.966;11.038;2023-06-26T03:05:13;19.80;99.90
30381;DHT22;17169;50.966;11.038;2023-06-26T03:08:16;19.80;99.90
30381;DHT22;17169;50.966;11.038;2023-06-26T03:11:18;19.70;99.90
30381;DHT22;17169;50.966;11.038;2023-06-26T03:14:22;19.70;99.90
30381;DHT22;17169;50.966;11.038;2023-06-26T03:17:24;19.70;99.90
30381;DHT22;17169;50.966;11.038;2023-06-26T03:20:26;19.70;99.90
30381;DHT22;17169;50.966;11.038;2023-06-26T03:23:29;19.60;99.90
30381;DHT22;17169;50.966;11.038;2023-06-26T03:26:31;19.60;99.90
30381;DHT22;17169;50.966;11.038;2023-06-26T03:29:35;19.60;99.90
30381;DHT22;17169;50.966;11.038;2023-06-26T03:32:37;19.50;99.90
30381;DHT22;17169;50.966;11.038;2023-06-26T03:35:40;19.40;99.90
30381;DHT22;17169;50.966;11.038;2023-06-26T03:38:42;19.30;99.90
30381;DHT22;17169;50.966;11.038;2023-06-26T03:41:44;19.40;99.90
30381;DHT22;17169;50.966;11.038;2023-06-26T03:44:48;19.40;99.90
30381;DHT22;17169;50.966;11.038;2023-06-26T03:47:50;19.30;99.90
30381;DHT22;17169;50.966;11.038;2023-06-26T03:50:53;19.30;99.90
30381;DHT22;17169;50.966;11.038;2023-06-26T03:53:55;19.30;99.90
30381;DHT22;17169;50.966;11.038;2023-06-26T03:56:58;19.30;99.90
30381;DHT22;17169;50.966;11.038;2023-06-26T04:00:02;19.30;99.90
30381;DHT22;17169;50.966;11.038;2023-06-26T04:03:06;19.30;99.90
30381;DHT22;17169;50.966;11.038;2023-06-26T04:06:10;19.30;99.90
30381;DHT22;17169;50.966;11.038;2023-06-26T04:09:12;19.40;99.90
30381;DHT22;17169;50.966;11.038;2023-06-26T04:12:14;19.70;99.90
30381;DHT22;17169;50.966;11.038;2023-06-26T04:15:18;19.70;99.90
30381;DHT22;17169;50.966;11.038;2023-06-26T04:18:21;19.70;99.90
30381;DHT22;17169;50.966;11.038;2023-06-26T04:21:23;19.70;99.90
30381;DHT22;17169;50.966;11.038;2023-06-26T04:24:26;19.60;99.90
30381;DHT22;17169;50.966;11.038;2023-06-26T04:27:29;19.70;99.90
30381;DHT22;17169;50.966;11.038;2023-06-26T04:30:32;19.70;99.90
30381;DHT22;17169;50.966;11.038;2023-06-26T04:33:36;19.70;99.90
30381;DHT22;17169;50.966;11.038;2023-06-26T04:36:38;19.70;99.90
30381;DHT22;17169;50.966;11.038;2023-06-26T04:39:41;19.90;99.90
30381;DHT22;17169;50.966;11.038;2023-06-26T04:42:43;20.10;99.90
30381;DHT22;17169;50.966;11.038;2023-06-26T04:45:47;20.10;99.90
30381;DHT22;17169;50.966;11.038;2023-06-26T04:48:49;20.10;99.90
30381;DHT22;17169;50.966;11.038;2023-06-26T04:51:51;20.20;99.90
30381;DHT22;17169;50.966;11.038;2023-06-26T04:54:54;20.30;99.90
30381;DHT22;17169;50.966;11.038;2023-06-26T04:57:56;20.30;99.90
30381;DHT22;17169;50.966;11.038;2023-06-26T05:01:00;20.30;99.90
30381;DHT22;17169;50.966;11.038;2023-06-26T05:04:02;20.30;99.90
30381;DHT22;17169;50.966;11.038;2023-06-26T05:07:05;20.30;99.90
30381;DHT22;17169;50.966;11.038;2023-06-26T05:10:08;20.50;99.90
30381;DHT22;17169;50.966;11.038;2023-06-26T05:13:10;20.50;99.90
30381;DHT22;17169;50.966;11.038;2023-06-26T05:16:17;20.70;99.90
30381;DHT22;17169;50.966;11.038;2023-06-26T05:19:19;20.80;99.90
30381;DHT22;17169;50.966;11.038;2023-06-26T05:22:22;20.90;99.90
30381;DHT22;17169;50.966;11.038;2023-06-26T05:25:25;21.10;99.90
30381;DHT22;17169;50.966;11.038;2023-06-26T05:28:30;21.20;99.90
30381;DHT22;17169;50.966;11.038;2023-06-26T05:31:37;21.30;99.90
30381;DHT22;17169;50.966;11.038;2023-06-26T05:34:42;21.40;99.90
30381;DHT22;17169;50.966;11.038;2023-06-26T05:37:45;21.50;99.90
30381;DHT22;17169;50.966;11.038;2023-06-26T05:40:48;21.70;99.90
30381;DHT22;17169;50.966;11.038;2023-06-26T05:43:50;21.80;99.90
30381;DHT22;17169;50.966;11.038;2023-06-26T05:46:56;22.00;99.90
30381;DHT22;17169;50.966;11.038;2023-06-26T05:49:59;22.10;99.90
30381;DHT22;17169;50.966;11.038;2023-06-26T05:53:02;22.30;99.90
30381;DHT22;17169;50.966;11.038;2023-06-26T05:56:05;22.40;99.70
30381;DHT22;17169;50.966;11.038;2023-06-26T05:59:08;22.50;99.10
30381;DHT22;17169;50.966;11.038;2023-06-26T06:02:13;22.70;98.90
30381;DHT22;17169;50.966;11.038;2023-06-26T06:05:16;22.80;99.00
30381;DHT22;17169;50.966;11.038;2023-06-26T06:08:18;22.90;98.90
30381;DHT22;17169;50.966;11.038;2023-06-26T06:11:20;23.10;98.70
30381;DHT22;17169;50.966;11.038;2023-06-26T06:14:23;23.20;98.20
30381;DHT22;17169;50.966;11.038;2023-06-26T06:17:27;23.30;98.10
30381;DHT22;17169;50.966;11.038;2023-06-26T06:20:29;23.50;98.10
30381;DHT22;17169;50.966;11.038;2023-06-26T06:23:31;23.60;98.00
30381;DHT22;17169;50.966;11.038;2023-06-26T06:26:34;23.80;97.80
30381;DHT22;17169;50.966;11.038;2023-06-26T06:29:36;24.00;97.40
30381;DHT22;17169;50.966;11.038;2023-06-26T06:32:40;24.10;97.30
30381;DHT22;17169;50.966;11.038;2023-06-26T06:35:42;24.30;96.90
30381;DHT22;17169;50.966;11.038;2023-06-26T06:38:45;24.40;96.40
30381;DHT22;17169;50.966;11.038;2023-06-26T06:41:47;24.60;96.40
30381;DHT22;17169;50.966;11.038;2023-06-26T06:44:50;24.70;96.50
30381;DHT22;17169;50.966;11.038;2023-06-26T06:47:53;24.90;96.10
30381;DHT22;17169;50.966;11.038;2023-06-26T06:50:56;25.10;95.50
30381;DHT22;17169;50.966;11.038;2023-06-26T06:53:58;25.30;95.40
30381;DHT22;17169;50.966;11.038;2023-06-26T06:57:01;25.40;95.10
30381;DHT22;17169;50.966;11.038;2023-06-26T07:00:04;25.60;94.90
30381;DHT22;17169;50.966;11.038;2023-06-26T07:03:10;25.70;94.60
30381;DHT22;17169;50.966;11.038;2023-06-26T07:06:13;25.90;94.80
30381;DHT22;17169;50.966;11.038;2023-06-26T07:09:15;26.00;94.00
30381;DHT22;17169;50.966;11.038;2023-06-26T07:12:17;26.20;93.70
30381;DHT22;17169;50.966;11.038;2023-06-26T07:15:20;26.30;93.60
30381;DHT22;17169;50.966;11.038;2023-06-26T07:18:24;26.50;93.30
30381;DHT22;17169;50.966;11.038;2023-06-26T07:21:26;26.70;93.20
30381;DHT22;17169;50.966;11.038;2023-06-26T07:24:28;26.70;92.00
30381;DHT22;17169;50.966;11.038;2023-06-26T07:27:30;26.80;92.20
30381;DHT22;17169;50.966;11.038;2023-06-26T07:30:34;26.90;92.50
30381;DHT22;17169;50.966;11.038;2023-06-26T07:33:38;27.10;92.10
30381;DHT22;17169;50.966;11.038;2023-06-26T07:36:41;27.20;91.60
30381;DHT22;17169;50.966;11.038;2023-06-26T07:39:43;27.30;90.80
30381;DHT22;17169;50.966;11.038;2023-06-26T07:42:45;27.40;90.70
30381;DHT22;17169;50.966;11.038;2023-06-26T07:45:48;27.50;90.40
30381;DHT22;17169;50.966;11.038;2023-06-26T07:48:53;27.60;89.90
30381;DHT22;17169;50.966;11.038;2023-06-26T07:51:56;27.70;88.90
30381;DHT22;17169;50.966;11.038;2023-06-26T07:54:58;27.80;89.40
30381;DHT22;17169;50.966;11.038;2023-06-26T07:58:01;27.90;87.90
30381;DHT22;17169;50.966;11.038;2023-06-26T08:01:03;28.10;89.10
30381;DHT22;17169;50.966;11.038;2023-06-26T08:04:07;28.20;87.00
30381;DHT22;17169;50.966;11.038;2023-06-26T08:07:12;28.30;86.50
30381;DHT22;17169;50.966;11.038;2023-06-26T08:10:14;28.30;85.40
30381;DHT22;17169;50.966;11.038;2023-06-26T08:13:17;28.40;85.80
30381;DHT22;17169;50.966;11.038;2023-06-26T08:16:19;28.60;85.60
30381;DHT22;17169;50.966;11.038;2023-06-26T08:19:23;28.70;83.50
30381;DHT22;17169;50.966;11.038;2023-06-26T08:22:25;28.80;82.90
30381;DHT22;17169;50.966;11.038;2023-06-26T08:25:27;28.90;80.40
30381;DHT22;17169;50.966;11.038;2023-06-26T08:28:30;29.00;81.90
30381;DHT22;17169;50.966;11.038;2023-06-26T08:31:32;29.10;80.50
30381;DHT22;17169;50.966;11.038;2023-06-26T08:34:36;29.20;79.60
30381;DHT22;17169;50.966;11.038;2023-06-26T08:37:39;29.20;79.50
30381;DHT22;17169;50.966;11.038;2023-06-26T08:40:41;29.30;80.00
30381;DHT22;17169;50.966;11.038;2023-06-26T08:43:43;29.30;80.00
30381;DHT22;17169;50.966;11.038;2023-06-26T08:46:46;29.40;78.50
30381;DHT22;17169;50.966;11.038;2023-06-26T08:49:53;29.50;78.30
30381;DHT22;17169;50.966;11.038;2023-06-26T08:53:03;29.60;75.70
30381;DHT22;17169;50.966;11.038;2023-06-26T08:56:08;29.60;73.20
30381;DHT22;17169;50.966;11.038;2023-06-26T08:59:11;29.70;72.80
30381;DHT22;17169;50.966;11.038;2023-06-26T09:02:15;29.70;72.80
30381;DHT22;17169;50.966;11.038;2023-06-26T09:05:19;29.90;73.30
30381;DHT22;17169;50.966;11.038;2023-06-26T09:08:21;30.00;73.70
30381;DHT22;17169;50.966;11.038;2023-06-26T09:11:24;30.00;73.00
30381;DHT22;17169;50.966;11.038;2023-06-26T09:14:26;30.10;71.40
30381;DHT22;17169;50.966;11.038;2023-06-26T09:17:29;30.10;71.50
30381;DHT22;17169;50.966;11.038;2023-06-26T09:20:34;30.10;71.60
30381;DHT22;17169;50.966;11.038;2023-06-26T09:23:36;30.20;70.30
30381;DHT22;17169;50.966;11.038;2023-06-26T09:26:40;30.20;69.50
30381;DHT22;17169;50.966;11.038;2023-06-26T09:29:45;30.20;70.50
30381;DHT22;17169;50.966;11.038;2023-06-26T09:32:47;30.30;69.50
30381;DHT22;17169;50.966;11.038;2023-06-26T09:35:53;30.40;70.20
30381;DHT22;17169;50.966;11.038;2023-06-26T09:38:55;30.40;69.10
30381;DHT22;17169;50.966;11.038;2023-06-26T09:41:58;30.50;69.30
30381;DHT22;17169;50.966;11.038;2023-06-26T09:45:03;30.50;69.80
30381;DHT22;17169;50.966;11.038;2023-06-26T09:48:06;30.50;68.40
30381;DHT22;17169;50.966;11.038;2023-06-26T09:51:11;30.50;68.00
30381;DHT22;17169;50.966;11.038;2023-06-26T09:54:16;30.50;68.50
30381;DHT22;17169;50.966;11.038;2023-06-26T09:57:19;30.60;65.80
30381;DHT22;17169;50.966;11.038;2023-06-26T10:00:21;30.60;66.90
30381;DHT22;17169;50.966;11.038;2023-06-26T10:03:24;30.60;66.30
30381;DHT22;17169;50.966;11.038;2023-06-26T10:06:32;30.60;65.90
30381;DHT22;17169;50.966;11.038;2023-06-26T10:09:39;30.60;66.30
30381;DHT22;17169;50.966;11.038;2023-06-26T10:12:43;30.70;65.50
30381;DHT22;17169;50.966;11.038;2023-06-26T10:15:49;30.80;66.00
30381;DHT22;17169;50.966;11.038;2023-06-26T10:18:53;30.80;63.50
30381;DHT22;17169;50.966;11.038;2023-06-26T10:22:00;30.80;64.40
30381;DHT22;17169;50.966;11.038;2023-06-26T10:25:06;30.80;63.40
30381;DHT22;17169;50.966;11.038;2023-06-26T10:28:10;30.80;62.20
30381;DHT22;17169;50.966;11.038;2023-06-26T10:31:14;30.70;62.60
30381;DHT22;17169;50.966;11.038;2023-06-26T10:34:16;30.80;63.90
30381;DHT22;17169;50.966;11.038;2023-06-26T10:37:20;30.80;63.10
30381;DHT22;17169;50.966;11.038;2023-06-26T10:40:26;30.90;64.20
30381;DHT22;17169;50.966;11.038;2023-06-26T10:43:30;30.90;62.80
30381;DHT22;17169;50.966;11.038;2023-06-26T10:46:33;31.10;63.00
30381;DHT22;17169;50.966;11.038;2023-06-26T10:49:37;31.20;64.50
30381;DHT22;17169;50.966;11.038;2023-06-26T10:52:41;31.30;62.60
30381;DHT22;17169;50.966;11.038;2023-06-26T10:55:48;31.40;62.30
30381;DHT22;17169;50.966;11.038;2023-06-26T10:58:50;31.40;62.50
30381;DHT22;17169;50.966;11.038;2023-06-26T11:01:56;31.50;62.90
30381;DHT22;17169;50.966;11.038;2023-06-26T11:05:00;31.60;64.20
30381;DHT22;17169;50.966;11.038;2023-06-26T11:08:08;31.70;61.90
30381;DHT22;17169;50.966;11.038;2023-06-26T11:11:11;31.70;62.70
30381;DHT22;17169;50.966;11.038;2023-06-26T11:14:13;31.80;62.20
30381;DHT22;17169;50.966;11.038;2023-06-26T11:17:19;32.00;63.60
30381;DHT22;17169;50.966;11.038;2023-06-26T11:20:21;32.30;62.70
30381;DHT22;17169;50.966;11.038;2023-06-26T11:23:25;32.50;62.40
30381;DHT22;17169;50.966;11.038;2023-06-26T11:26:29;32.60;61.10
30381;DHT22;17169;50.966;11.038;2023-06-26T11:29:32;32.90;62.50
30381;DHT22;17169;50.966;11.038;2023-06-26T11:32:36;33.00;60.90
30381;DHT22;17169;50.966;11.038;2023-06-26T11:35:38;33.10;60.70
30381;DHT22;17169;50.966;11.038;2023-06-26T11:38:42;33.00;60.50
30381;DHT22;17169;50.966;11.038;2023-06-26T11:41:45;33.10;60.00
30381;DHT22;17169;50.966;11.038;2023-06-26T11:44:48;33.40;60.50
30381;DHT22;17169;50.966;11.038;2023-06-26T11:47:50;33.60;58.20
30381;DHT22;17169;50.966;11.038;2023-06-26T11:50:54;33.80;59.20
30381;DHT22;17169;50.966;11.038;2023-06-26T11:54:00;33.90;59.00
30381;DHT22;17169;50.966;11.038;2023-06-26T11:57:03;33.80;58.90
30381;DHT22;17169;50.966;11.038;2023-06-26T12:00:13;33.90;58.60
30381;DHT22;17169;50.966;11.038;2023-06-26T12:03:15;33.90;59.80
30381;DHT22;17169;50.966;11.038;2023-06-26T12:06:18;33.90;58.10
30381;DHT22;17169;50.966;11.038;2023-06-26T12:09:22;34.10;58.70
30381;DHT22;17169;50.966;11.038;2023-06-26T12:12:25;34.30;56.90
30381;DHT22;17169;50.966;11.038;2023-06-26T12:15:28;34.40;56.10
30381;DHT22;17169;50.966;11.038;2023-06-26T12:18:34;34.40;55.40
30381;DHT22;17169;50.966;11.038;2023-06-26T12:21:47;34.30;55.00
30381;DHT22;17169;50.966;11.038;2023-06-26T12:24:56;34.00;55.30
30381;DHT22;17169;50.966;11.038;2023-06-26T12:27:59;33.90;56.10
30381;DHT22;17169;50.966;11.038;2023-06-26T12:31:14;33.80;56.30
30381;DHT22;17169;50.966;11.038;2023-06-26T12:34:18;33.50;56.10
30381;DHT22;17169;50.966;11.038;2023-06-26T12:37:21;33.40;56.10
30381;DHT22;17169;50.966;11.038;2023-06-26T12:40:25;33.60;56.50
30381;DHT22;17169;50.966;11.038;2023-06-26T12:43:27;33.60;56.90
30381;DHT22;17169;50.966;11.038;2023-06-26T12:46:33;33.30;57.10
30381;DHT22;17169;50.966;11.038;2023-06-26T12:49:38;33.30;57.60
30381;DHT22;17169;50.966;11.038;2023-06-26T12:52:40;33.10;59.00
30381;DHT22;17169;50.966;11.038;2023-06-26T12:55:44;32.80;62.10
30381;DHT22;17169;50.966;11.038;2023-06-26T12:58:46;32.70;63.40
30381;DHT22;17169;50.966;11.038;2023-06-26T13:01:48;32.30;64.50
30381;DHT22;17169;50.966;11.038;2023-06-26T13:04:51;32.20;65.20
30381;DHT22;17169;50.966;11.038;2023-06-26T13:07:53;32.20;65.80
30381;DHT22;17169;50.966;11.038;2023-06-26T13:10:57;32.10;65.60
30381;DHT22;17169;50.966;11.038;2023-06-26T13:14:00;32.10;65.80
30381;DHT22;17169;50.966;11.038;2023-06-26T13:17:03;31.70;68.00
30381;DHT22;17169;50.966;11.038;2023-06-26T13:20:06;31.90;68.80
30381;DHT22;17169;50.966;11.038;2023-06-26T13:23:09;32.00;69.50
30381;DHT22;17169;50.966;11.038;2023-06-26T13:26:13;31.80;70.60
30381;DHT22;17169;50.966;11.038;2023-06-26T13:29:15;31.70;70.80
30381;DHT22;17169;50.966;11.038;2023-06-26T13:32:18;31.40;72.00
30381;DHT22;17169;50.966;11.038;2023-06-26T13:35:20;31.30;73.20
30381;DHT22;17169;50.966;11.038;2023-06-26T13:38:23;31.10;73.40
30381;DHT22;17169;50.966;11.038;2023-06-26T13:41:28;31.00;73.60
30381;DHT22;17169;50.966;11.038;2023-06-26T13:44:31;30.90;74.70
30381;DHT22;17169;50.966;11.038;2023-06-26T13:47:33;30.90;74.90
30381;DHT22;17169;50.966;11.038;2023-06-26T13:50:38;30.90;74.50
30381;DHT22;17169;50.966;11.038;2023-06-26T13:53:41;31.20;73.60
30381;DHT22;17169;50.966;11.038;2023-06-26T13:56:44;31.40;73.00
30381;DHT22;17169;50.966;11.038;2023-06-26T13:59:47;31.50;72.00
30381;DHT22;17169;50.966;11.038;2023-06-26T14:02:49;31.60;71.80
30381;DHT22;17169;50.966;11.038;2023-06-26T14:05:52;33.00;72.10
30381;DHT22;17169;50.966;11.038;2023-06-26T14:08:54;34.40;68.30
30381;DHT22;17169;50.966;11.038;2023-06-26T14:11:58;35.70;67.40
30381;DHT22;17169;50.966;11.038;2023-06-26T14:15:00;37.20;64.50
30381;DHT22;17169;50.966;11.038;2023-06-26T14:18:04;38.30;62.60
30381;DHT22;17169;50.966;11.038;2023-06-26T14:21:07;38.20;60.70
30381;DHT22;17169;50.966;11.038;2023-06-26T14:24:10;37.80;61.00
30381;DHT22;17169;50.966;11.038;2023-06-26T14:27:14;37.00;60.70
30381;DHT22;17169;50.966;11.038;2023-06-26T14:30:16;35.90;62.50
30381;DHT22;17169;50.966;11.038;2023-06-26T14:33:19;35.50;63.70
30381;DHT22;17169;50.966;11.038;2023-06-26T14:36:21;34.90;64.80
30381;DHT22;17169;50.966;11.038;2023-06-26T14:39:24;35.30;65.50
30381;DHT22;17169;50.966;11.038;2023-06-26T14:42:27;34.60;65.40
30381;DHT22;17169;50.966;11.038;2023-06-26T14:45:30;33.50;67.60
30381;DHT22;17169;50.966;11.038;2023-06-26T14:48:32;34.20;68.70
30381;DHT22;17169;50.966;11.038;2023-06-26T14:51:34;33.90;67.60
30381;DHT22;17169;50.966;11.038;2023-06-26T14:54:37;33.00;69.30
30381;DHT22;17169;50.966;11.038;2023-06-26T14:57:42;32.70;70.30
30381;DHT22;17169;50.966;11.038;2023-06-26T15:00:45;33.30;70.50
30381;DHT22;17169;50.966;11.038;2023-06-26T15:03:48;34.30;69.10
30381;DHT22;17169;50.966;11.038;2023-06-26T15:06:50;33.90;68.10
30381;DHT22;17169;50.966;11.038;2023-06-26T15:09:52;33.30;69.00
30381;DHT22;17169;50.966;11.038;2023-06-26T15:12:56;33.00;68.80
30381;DHT22;17169;50.966;11.038;2023-06-26T15:15:58;32.70;69.10
30381;DHT22;17169;50.966;11.038;2023-06-26T15:19:01;33.60;69.50
30381;DHT22;17169;50.966;11.038;2023-06-26T15:22:03;32.80;68.80
30381;DHT22;17169;50.966;11.038;2023-06-26T15:25:07;31.80;70.50
30381;DHT22;17169;50.966;11.038;2023-06-26T15:28:10;31.20;70.70
30381;DHT22;17169;50.966;11.038;2023-06-26T15:31:13;30.40;71.60
30381;DHT22;17169;50.966;11.038;2023-06-26T15:34:15;29.80;72.50
30381;DHT22;17169;50.966;11.038;2023-06-26T15:37:17;29.30;73.10
30381;DHT22;17169;50.966;11.038;2023-06-26T15:40:20;29.00;74.00
30381;DHT22;17169;50.966;11.038;2023-06-26T15:43:23;30.30;72.80
30381;DHT22;17169;50.966;11.038;2023-06-26T15:46:26;32.00;70.00
30381;DHT22;17169;50.966;11.038;2023-06-26T15:49:28;32.90;68.10
30381;DHT22;17169;50.966;11.038;2023-06-26T15:52:30;34.30;66.60
30381;DHT22;17169;50.966;11.038;2023-06-26T15:55:33;35.50;63.90
30381;DHT22;17169;50.966;11.038;2023-06-26T15:58:37;36.30;62.10
30381;DHT22;17169;50.966;11.038;2023-06-26T16:01:42;36.40;60.30
30381;DHT22;17169;50.966;11.038;2023-06-26T16:04:46;36.60;60.20
30381;DHT22;17169;50.966;11.038;2023-06-26T16:07:48;37.80;57.70
30381;DHT22;17169;50.966;11.038;2023-06-26T16:10:53;38.30;56.60
30381;DHT22;17169;50.966;11.038;2023-06-26T16:13:56;38.70;56.30
30381;DHT22;17169;50.966;11.038;2023-06-26T16:16:59;39.80;54.80
30381;DHT22;17169;50.966;11.038;2023-06-26T16:20:03;39.10;53.80
30381;DHT22;17169;50.966;11.038;2023-06-26T16:23:05;39.10;54.80
30381;DHT22;17169;50.966;11.038;2023-06-26T16:26:08;39.70;53.80
30381;DHT22;17169;50.966;11.038;2023-06-26T16:29:11;39.60;53.90
30381;DHT22;17169;50.966;11.038;2023-06-26T16:32:14;40.00;53.50
30381;DHT22;17169;50.966;11.038;2023-06-26T16:35:16;40.60;53.10
30381;DHT22;17169;50.966;11.038;2023-06-26T16:38:18;40.10;52.70
30381;DHT22;17169;50.966;11.038;2023-06-26T16:41:21;40.30;53.10
30381;DHT22;17169;50.966;11.038;2023-06-26T16:44:26;39.50;53.70
30381;DHT22;17169;50.966;11.038;2023-06-26T16:47:28;37.90;53.90
30381;DHT22;17169;50.966;11.038;2023-06-26T16:50:31;37.90;54.10
30381;DHT22;17169;50.966;11.038;2023-06-26T16:53:33;38.10;53.50
30381;DHT22;17169;50.966;11.038;2023-06-26T16:56:35;38.50;52.10
30381;DHT22;17169;50.966;11.038;2023-06-26T16:59:39;38.60;52.00
30381;DHT22;17169;50.966;11.038;2023-06-26T17:02:43;38.40;50.90
30381;DHT22;17169;50.966;11.038;2023-06-26T17:05:46;38.30;51.10
30381;DHT22;17169;50.966;11.038;2023-06-26T17:08:49;38.30;50.30
30381;DHT22;17169;50.966;11.038;2023-06-26T17:11:51;36.60;51.20
30381;DHT22;17169;50.966;11.038;2023-06-26T17:14:55;36.20;51.60
30381;DHT22;17169;50.966;11.038;2023-06-26T17:17:57;35.60;52.40
30381;DHT22;17169;50.966;11.038;2023-06-26T17:20:59;35.70;51.90
30381;DHT22;17169;50.966;11.038;2023-06-26T17:24:02;35.40;51.80
30381;DHT22;17169;50.966;11.038;2023-06-26T17:27:08;33.80;53.00
30381;DHT22;17169;50.966;11.038;2023-06-26T17:30:13;33.00;54.20
30381;DHT22;17169;50.966;11.038;2023-06-26T17:33:15;32.30;55.30
30381;DHT22;17169;50.966;11.038;2023-06-26T17:36:17;31.40;56.00
30381;DHT22;17169;50.966;11.038;2023-06-26T17:39:20;30.60;57.30
30381;DHT22;17169;50.966;11.038;2023-06-26T17:42:22;29.80;58.10
30381;DHT22;17169;50.966;11.038;2023-06-26T17:45:26;29.50;58.40
30381;DHT22;17169;50.966;11.038;2023-06-26T17:48:30;28.90;58.90
30381;DHT22;17169;50.966;11.038;2023-06-26T17:51:32;28.50;59.90
30381;DHT22;17169;50.966;11.038;2023-06-26T17:54:34;28.10;60.50
30381;DHT22;17169;50.966;11.038;2023-06-26T17:57:37;27.90;61.20
30381;DHT22;17169;50.966;11.038;2023-06-26T18:00:41;27.60;61.80
30381;DHT22;17169;50.966;11.038;2023-06-26T18:03:44;27.50;63.00
30381;DHT22;17169;50.966;11.038;2023-06-26T18:06:46;27.10;63.40
30381;DHT22;17169;50.966;11.038;2023-06-26T18:09:49;26.80;64.10
30381;DHT22;17169;50.966;11.038;2023-06-26T18:12:51;26.70;64.80
30381;DHT22;17169;50.966;11.038;2023-06-26T18:15:56;26.60;65.20
30381;DHT22;17169;50.966;11.038;2023-06-26T18:18:58;26.30;66.30
30381;DHT22;17169;50.966;11.038;2023-06-26T18:22:00;26.10;67.00
30381;DHT22;17169;50.966;11.038;2023-06-26T18:25:04;25.90;68.30
30381;DHT22;17169;50.966;11.038;2023-06-26T18:28:07;25.70;68.50
30381;DHT22;17169;50.966;11.038;2023-06-26T18:31:11;25.60;69.50
30381;DHT22;17169;50.966;11.038;2023-06-26T18:34:13;25.50;69.50
30381;DHT22;17169;50.966;11.038;2023-06-26T18:37:15;25.30;69.80
30381;DHT22;17169;50.966;11.038;2023-06-26T18:40:18;25.00;70.10
30381;DHT22;17169;50.966;11.038;2023-06-26T18:43:20;24.80;70.80
30381;DHT22;17169;50.966;11.038;2023-06-26T18:46:24;24.50;71.60
30381;DHT22;17169;50.966;11.038;2023-06-26T18:49:29;24.30;71.90
30381;DHT22;17169;50.966;11.038;2023-06-26T18:52:31;24.20;72.40
30381;DHT22;17169;50.966;11.038;2023-06-26T18:55:33;24.00;72.70
30381;DHT22;17169;50.966;11.038;2023-06-26T18:58:36;24.00;72.80